Time,TemperatureF,DewpointF,PressureIn,WindDirection,WindDirectionDegrees,WindSpeedMPH,WindSpeedGustMPH,Humidity,HourlyPrecipIn,Conditions,Clouds,dailyrainin,SoftwareType,DateUTC
2013-11-20 00:07:00,-7.6,-12.9,29.96,NNE,22,0.0,-999.0,77,-99.99,,,0.00,Acu-Link.com,2013-11-20 08:07:00,
2013-11-20 00:22:00,-7.6,-12.9,29.96,NNE,22,0.0,-999.0,77,-99.99,,,0.00,Acu-Link.com,2013-11-20 08:22:00,
2013-11-20 00:38:00,-7.6,-12.9,29.96,North,0,0.0,-999.0,77,-99.99,,,0.00,Acu-Link.com,2013-11-20 08:38:00,
2013-11-20 00:53:00,-9.4,-14.6,29.97,North,0,0.0,-999.0,77,-99.99,,,0.00,Acu-Link.com,2013-11-20 08:53:00,
2013-11-20 01:08:00,-9.4,-14.6,29.99,North,0,0.0,-999.0,77,-99.99,,,0.00,Acu-Link.com,2013-11-20 09:08:00,
2013-11-20 01:24:00,-7.6,-12.9,30.00,North,0,0.0,-999.0,77,-99.99,,,0.00,Acu-Link.com,2013-11-20 09:24:00,
2013-11-20 01:39:00,-9.4,-14.6,29.99,North,0,0.0,-999.0,77,-99.99,,,0.00,Acu-Link.com,2013-11-20 09:39:00,
2013-11-20 01:54:00,-9.4,-14.9,30.00,NNW,337,0.0,-999.0,76,-99.99,,,0.00,Acu-Link.com,2013-11-20 09:54:00,
2013-11-20 02:10:00,-9.4,-15.1,30.01,South,180,0.0,-999.0,75,-99.99,,,0.00,Acu-Link.com,2013-11-20 10:10:00,
2013-11-20 02:25:00,-9.4,-15.1,30.01,ESE,112,0.0,-999.0,75,-99.99,,,0.00,Acu-Link.com,2013-11-20 10:25:00,
2013-11-20 02:40:00,-9.4,-15.4,30.01,SSE,157,0.0,-999.0,74,-99.99,,,0.00,Acu-Link.com,2013-11-20 10:40:00,
2013-11-20 02:56:00,-11.2,-17.1,30.01,SSE,157,0.0,-999.0,74,-99.99,,,0.00,Acu-Link.com,2013-11-20 10:56:00,
2013-11-20 03:11:00,-11.2,-17.1,30.01,ESE,112,0.0,-999.0,74,-99.99,,,0.00,Acu-Link.com,2013-11-20 11:11:00,
2013-11-20 03:26:00,-11.2,-17.1,30.01,SSE,157,0.0,-999.0,74,-99.99,,,0.00,Acu-Link.com,2013-11-20 11:26:00,
2013-11-20 03:41:00,-11.2,-16.9,30.01,SW,225,0.0,-999.0,75,-99.99,,,0.00,Acu-Link.com,2013-11-20 11:41:00,
2013-11-20 03:56:00,-13.0,-18.6,30.02,East,90,0.0,-999.0,75,-99.99,,,0.00,Acu-Link.com,2013-11-20 11:56:00,
2013-11-20 04:12:00,-11.2,-16.6,30.02,SE,135,0.0,-999.0,76,-99.99,,,0.00,Acu-Link.com,2013-11-20 12:12:00,
2013-11-20 04:27:00,-11.2,-16.4,30.02,NNE,22,0.0,-999.0,77,-99.99,,,0.00,Acu-Link.com,2013-11-20 12:27:00,
2013-11-20 04:42:00,-9.4,-14.4,30.02,NNW,337,0.0,-999.0,78,-99.99,,,0.00,Acu-Link.com,2013-11-20 12:42:00,
2013-11-20 04:57:00,-9.4,-14.6,30.03,ESE,112,0.0,-999.0,77,-99.99,,,0.00,Acu-Link.com,2013-11-20 12:57:00,
2013-11-20 05:13:00,-9.4,-14.9,30.04,ESE,112,0.0,-999.0,76,-99.99,,,0.00,Acu-Link.com,2013-11-20 13:13:00,
2013-11-20 05:28:00,-9.4,-14.9,30.04,ESE,112,0.0,-999.0,76,-99.99,,,0.00,Acu-Link.com,2013-11-20 13:28:00,
2013-11-20 05:43:00,-11.2,-16.6,30.04,South,180,0.0,-999.0,76,-99.99,,,0.00,Acu-Link.com,2013-11-20 13:43:00,
2013-11-20 05:58:00,-11.2,-16.9,30.04,ESE,112,0.0,-999.0,75,-99.99,,,0.00,Acu-Link.com,2013-11-20 13:58:00,
2013-11-20 06:14:00,-11.2,-16.9,30.04,South,180,0.0,-999.0,75,-99.99,,,0.00,Acu-Link.com,2013-11-20 14:14:00,
2013-11-20 06:29:00,-11.2,-16.9,30.05,SSW,202,0.0,-999.0,75,-99.99,,,0.00,Acu-Link.com,2013-11-20 14:29:00,
2013-11-20 06:44:00,-11.2,-16.9,30.04,South,180,0.0,-999.0,75,-99.99,,,0.00,Acu-Link.com,2013-11-20 14:44:00,
2013-11-20 06:59:00,-11.2,-16.9,30.05,South,180,0.0,-999.0,75,-99.99,,,0.00,Acu-Link.com,2013-11-20 14:59:00,
2013-11-20 07:14:00,-11.2,-16.9,30.05,ESE,112,0.0,-999.0,75,-99.99,,,0.00,Acu-Link.com,2013-11-20 15:14:00,
2013-11-20 07:30:00,-11.2,-16.6,30.05,SSE,157,0.0,-999.0,76,-99.99,,,0.00,Acu-Link.com,2013-11-20 15:30:00,
2013-11-20 07:45:00,-9.4,-14.9,30.05,SE,135,0.0,-999.0,76,-99.99,,,0.00,Acu-Link.com,2013-11-20 15:45:00,
2013-11-20 08:00:00,-9.4,-14.6,30.06,SSE,157,0.0,-999.0,77,-99.99,,,0.00,Acu-Link.com,2013-11-20 16:00:00,
2013-11-20 08:15:00,-7.6,-12.9,30.06,SSE,157,0.0,-999.0,77,-99.99,,,0.00,Acu-Link.com,2013-11-20 16:15:00,
2013-11-20 08:31:00,-7.6,-12.6,30.07,SSE,157,0.0,-999.0,78,-99.99,,,0.00,Acu-Link.com,2013-11-20 16:31:00,
2013-11-20 08:46:00,-5.8,-10.8,30.07,SW,225,0.0,-999.0,78,-99.99,,,0.00,Acu-Link.com,2013-11-20 16:46:00,
2013-11-20 09:01:00,-5.8,-11.1,30.08,SSE,157,0.0,-999.0,77,-99.99,,,0.00,Acu-Link.com,2013-11-20 17:01:00,
2013-11-20 09:16:00,-4.0,-9.1,30.09,SSE,157,0.0,-999.0,78,-99.99,,,0.00,Acu-Link.com,2013-11-20 17:16:00,
2013-11-20 09:32:00,-4.0,-9.1,30.09,SW,225,0.0,-999.0,78,-99.99,,,0.00,Acu-Link.com,2013-11-20 17:32:00,
2013-11-20 09:47:00,1.4,-3.6,30.10,WSW,247,0.0,-999.0,79,-99.99,,,0.00,Acu-Link.com,2013-11-20 17:47:00,
2013-11-20 10:02:00,1.4,-3.8,30.09,WSW,247,0.0,-999.0,78,-99.99,,,0.00,Acu-Link.com,2013-11-20 18:02:00,
2013-11-20 10:17:00,3.2,-2.1,30.10,WNW,292,0.0,-999.0,78,-99.99,,,0.00,Acu-Link.com,2013-11-20 18:17:00,
2013-11-20 10:32:00,5.0,-0.3,30.10,WSW,247,0.0,-999.0,78,-99.99,,,0.00,Acu-Link.com,2013-11-20 18:32:00,
2013-11-20 10:48:00,8.6,3.4,30.10,SSE,157,0.0,-999.0,79,-99.99,,,0.00,Acu-Link.com,2013-11-20 18:48:00,
2013-11-20 11:03:00,8.6,2.9,30.09,SSW,202,0.0,-999.0,77,-99.99,,,0.00,Acu-Link.com,2013-11-20 19:03:00,
2013-11-20 11:18:00,10.4,4.9,30.10,SE,135,0.0,-999.0,78,-99.99,,,0.00,Acu-Link.com,2013-11-20 19:18:00,
2013-11-20 11:33:00,10.4,4.4,30.09,WSW,247,0.0,-999.0,76,-99.99,,,0.00,Acu-Link.com,2013-11-20 19:33:00,
2013-11-20 11:48:00,12.2,5.5,30.09,SW,225,0.0,-999.0,74,-99.99,,,0.00,Acu-Link.com,2013-11-20 19:48:00,
2013-11-20 12:04:00,14.0,7.6,30.09,SE,135,0.0,-999.0,75,-99.99,,,0.00,Acu-Link.com,2013-11-20 20:04:00,
2013-11-20 12:19:00,17.6,9.8,30.09,ESE,112,0.0,-999.0,71,-99.99,,,0.00,Acu-Link.com,2013-11-20 20:19:00,
2013-11-20 12:34:00,17.6,9.8,30.09,SSE,157,0.0,-999.0,71,-99.99,,,0.00,Acu-Link.com,2013-11-20 20:34:00,
2013-11-20 12:49:00,17.6,9.8,30.09,ESE,112,0.0,-999.0,71,-99.99,,,0.00,Acu-Link.com,2013-11-20 20:49:00,
2013-11-20 13:04:00,19.4,10.9,30.09,ENE,67,0.0,-999.0,69,-99.99,,,0.00,Acu-Link.com,2013-11-20 21:04:00,
2013-11-20 13:20:00,19.4,11.6,30.09,ESE,112,0.0,-999.0,71,-99.99,,,0.00,Acu-Link.com,2013-11-20 21:20:00,
2013-11-20 13:35:00,19.4,11.2,30.10,East,90,0.0,-999.0,70,-99.99,,,0.00,Acu-Link.com,2013-11-20 21:35:00,
2013-11-20 13:50:00,17.6,10.1,30.09,SSW,202,0.0,-999.0,72,-99.99,,,0.00,Acu-Link.com,2013-11-20 21:50:00,
2013-11-20 14:05:00,17.6,10.7,30.09,South,180,0.0,-999.0,74,-99.99,,,0.00,Acu-Link.com,2013-11-20 22:05:00,
2013-11-20 14:20:00,17.6,11.1,30.10,East,90,0.0,-999.0,75,-99.99,,,0.00,Acu-Link.com,2013-11-20 22:20:00,
2013-11-20 14:35:00,163.4,18.9,30.09,East,90,0.0,-999.0,0,-99.99,,,0.00,Acu-Link.com,2013-11-20 22:35:00,
2013-11-20 14:51:00,15.8,9.6,30.10,ESE,112,0.0,-999.0,76,-99.99,,,0.00,Acu-Link.com,2013-11-20 22:51:00,
2013-11-20 15:06:00,15.8,9.9,30.11,ESE,112,0.0,-999.0,77,-99.99,,,0.00,Acu-Link.com,2013-11-20 23:06:00,
2013-11-20 15:21:00,14.0,8.4,30.11,SE,135,0.0,-999.0,78,-99.99,,,0.00,Acu-Link.com,2013-11-20 23:21:00,
2013-11-20 15:36:00,14.0,8.7,30.12,SSE,157,0.0,-999.0,79,-99.99,,,0.00,Acu-Link.com,2013-11-20 23:36:00,
2013-11-20 15:51:00,14.0,8.7,30.12,SSE,157,0.0,-999.0,79,-99.99,,,0.00,Acu-Link.com,2013-11-20 23:51:00,
2013-11-20 16:07:00,14.0,9.0,30.12,SSE,157,0.0,-999.0,80,-99.99,,,0.00,Acu-Link.com,2013-11-21 00:07:00,
2013-11-20 16:22:00,12.2,7.5,30.12,SSW,202,0.0,-999.0,81,-99.99,,,0.00,Acu-Link.com,2013-11-21 00:22:00,
2013-11-20 16:37:00,12.2,7.5,30.12,ESE,112,0.0,-999.0,81,-99.99,,,0.00,Acu-Link.com,2013-11-21 00:37:00,
2013-11-20 16:53:00,12.2,7.8,30.13,ESE,112,0.0,-999.0,82,-99.99,,,0.00,Acu-Link.com,2013-11-21 00:53:00,
2013-11-20 17:08:00,12.2,8.0,30.13,ESE,112,0.0,-999.0,83,-99.99,,,0.00,Acu-Link.com,2013-11-21 01:08:00,
2013-11-20 17:23:00,12.2,8.0,30.14,NE,45,0.0,-999.0,83,-99.99,,,0.00,Acu-Link.com,2013-11-21 01:23:00,
2013-11-20 17:39:00,12.2,8.3,30.14,East,90,0.0,-999.0,84,-99.99,,,0.00,Acu-Link.com,2013-11-21 01:39:00,
2013-11-20 17:54:00,12.2,8.3,30.14,ESE,112,0.0,-999.0,84,-99.99,,,0.00,Acu-Link.com,2013-11-21 01:54:00,
2013-11-20 18:09:00,12.2,8.0,30.15,SSE,157,0.0,-999.0,83,-99.99,,,0.00,Acu-Link.com,2013-11-21 02:09:00,
2013-11-20 18:24:00,12.2,8.0,30.15,NE,45,0.0,-999.0,83,-99.99,,,0.00,Acu-Link.com,2013-11-21 02:24:00,
2013-11-20 18:40:00,12.2,8.0,30.15,NE,45,0.0,-999.0,83,-99.99,,,0.00,Acu-Link.com,2013-11-21 02:40:00,
2013-11-20 18:55:00,12.2,8.0,30.15,ESE,112,0.0,-999.0,83,-99.99,,,0.00,Acu-Link.com,2013-11-21 02:55:00,
2013-11-20 19:10:00,12.2,8.0,30.16,ENE,67,0.0,-999.0,83,-99.99,,,0.00,Acu-Link.com,2013-11-21 03:10:00,
2013-11-20 19:26:00,12.2,8.0,30.16,ESE,112,0.0,-999.0,83,-99.99,,,0.00,Acu-Link.com,2013-11-21 03:26:00,
2013-11-20 19:41:00,12.2,8.0,30.17,East,90,0.0,-999.0,83,-99.99,,,0.00,Acu-Link.com,2013-11-21 03:41:00,
2013-11-20 19:56:00,12.2,8.0,30.18,East,90,0.0,-999.0,83,-99.99,,,0.00,Acu-Link.com,2013-11-21 03:56:00,
2013-11-20 20:12:00,12.2,8.0,30.18,ESE,112,0.0,-999.0,83,-99.99,,,0.00,Acu-Link.com,2013-11-21 04:12:00,
2013-11-20 20:27:00,12.2,8.0,30.18,ESE,112,0.0,-999.0,83,-99.99,,,0.00,Acu-Link.com,2013-11-21 04:27:00,
2013-11-20 20:42:00,12.2,8.0,30.17,ENE,67,0.0,-999.0,83,-99.99,,,0.00,Acu-Link.com,2013-11-21 04:42:00,
2013-11-20 20:58:00,12.2,8.0,30.18,ESE,112,0.0,-999.0,83,-99.99,,,0.00,Acu-Link.com,2013-11-21 04:58:00,
2013-11-20 21:13:00,12.2,8.0,30.19,East,90,0.0,-999.0,83,-99.99,,,0.00,Acu-Link.com,2013-11-21 05:13:00,
2013-11-20 21:28:00,12.2,8.0,30.19,East,90,0.0,-999.0,83,-99.99,,,0.00,Acu-Link.com,2013-11-21 05:28:00,
2013-11-20 21:43:00,10.4,6.3,30.20,ESE,112,0.0,-999.0,83,-99.99,,,0.00,Acu-Link.com,2013-11-21 05:43:00,
2013-11-20 21:59:00,10.4,6.3,30.20,ESE,112,0.0,-999.0,83,-99.99,,,0.00,Acu-Link.com,2013-11-21 05:59:00,
2013-11-20 22:14:00,10.4,6.3,30.21,ESE,112,0.0,-999.0,83,-99.99,,,0.00,Acu-Link.com,2013-11-21 06:14:00,
2013-11-20 22:29:00,10.4,6.3,30.22,ESE,112,0.0,-999.0,83,-99.99,,,0.00,Acu-Link.com,2013-11-21 06:29:00,
2013-11-20 22:45:00,10.4,6.3,30.23,ESE,112,0.0,-999.0,83,-99.99,,,0.00,Acu-Link.com,2013-11-21 06:45:00,
2013-11-20 23:00:00,10.4,6.3,30.23,ESE,112,0.0,-999.0,83,-99.99,,,0.00,Acu-Link.com,2013-11-21 07:00:00,
2013-11-20 23:15:00,10.4,6.3,30.23,SE,135,0.0,-999.0,83,-99.99,,,0.00,Acu-Link.com,2013-11-21 07:15:00,
2013-11-20 23:30:00,10.4,6.3,30.23,East,90,0.0,-999.0,83,-99.99,,,0.00,Acu-Link.com,2013-11-21 07:30:00,
2013-11-20 23:45:00,10.4,6.3,30.24,ESE,112,0.0,-999.0,83,-99.99,,,0.00,Acu-Link.com,2013-11-21 07:45:00,